TimeCST,TemperatureF,Dew PointF,Humidity,Sea Level PressureIn,VisibilityMPH,Wind Direction,Wind SpeedMPH,Gust SpeedMPH,PrecipitationIn,Events,Conditions,WindDirDegrees,DateUTC
12:15 AM,-7.1,-14.4,70,30.11,10.0,SSW,9.2,-,N/A,,Clear,210,2013-12-10 06:15:00
12:35 AM,-7.2,-13.9,73,30.10,10.0,SSW,9.2,-,N/A,,Clear,200,2013-12-10 06:35:00
12:55 AM,-7.1,-14.1,72,30.10,10.0,SSW,8.1,-,N/A,,Clear,200,2013-12-10 06:55:00
1:15 AM,-5.8,-12.5,73,30.09,10.0,South,6.9,-,N/A,,Clear,190,2013-12-10 07:15:00
1:35 AM,-5.8,-12.6,72,30.09,10.0,South,6.9,-,N/A,,Clear,180,2013-12-10 07:35:00
1:55 AM,-5.8,-12.1,74,30.08,10.0,SSE,8.1,-,N/A,,Clear,160,2013-12-10 07:55:00
2:15 AM,-6.3,-12.5,75,30.06,10.0,SE,9.2,-,N/A,,Clear,130,2013-12-10 08:15:00
2:35 AM,-6.2,-12.3,75,30.05,10.0,SE,8.1,-,N/A,,Clear,140,2013-12-10 08:35:00
2:55 AM,-6.3,-12.5,75,30.05,10.0,SSE,9.2,-,N/A,,Scattered Clouds,150,2013-12-10 08:55:00
3:15 AM,-4.9,-11.2,74,30.04,10.0,SSE,10.4,-,N/A,,Mostly Cloudy,160,2013-12-10 09:15:00
3:35 AM,-4.0,-10.3,74,30.02,10.0,SSE,11.5,-,N/A,,Overcast,150,2013-12-10 09:35:00
4:35 AM,-1.5,-8.5,72,29.97,10.0,SSE,11.5,-,N/A,,Overcast,160,2013-12-10 10:35:00
4:55 AM,-0.4,-7.6,72,29.94,10.0,SSE,13.8,-,N/A,,Overcast,150,2013-12-10 10:55:00
5:15 AM,0.1,-7.4,70,29.93,10.0,SSE,13.8,-,N/A,,Overcast,160,2013-12-10 11:15:00
5:35 AM,0.3,-7.1,71,29.92,10.0,South,16.1,-,N/A,,Mostly Cloudy,170,2013-12-10 11:35:00
5:55 AM,1.2,-6.7,69,29.90,10.0,South,13.8,-,N/A,,Overcast,170,2013-12-10 11:55:00
6:15 AM,2.1,-6.2,68,29.89,10.0,South,16.1,-,N/A,,Overcast,180,2013-12-10 12:15:00
6:35 AM,2.3,-6.2,68,29.89,7.0,South,17.3,-,N/A,,Overcast,190,2013-12-10 12:35:00
6:55 AM,3.0,-4.2,72,29.89,1.5,SSW,17.3,-,N/A,Snow,Light Snow,200,2013-12-10 12:55:00
7:15 AM,3.9,-2.4,75,29.89,3.0,SSW,16.1,-,N/A,Snow,Light Snow,200,2013-12-10 13:15:00
7:35 AM,4.6,-1.8,75,29.89,1.5,SSW,17.3,-,N/A,Snow,Light Snow,210,2013-12-10 13:35:00
7:55 AM,4.8,-1.3,76,29.89,1.0,SSW,17.3,-,N/A,Snow,Light Snow,200,2013-12-10 13:55:00
8:15 AM,5.0,-0.8,77,29.89,1.0,SSW,17.3,-,N/A,Snow,Light Snow,210,2013-12-10 14:15:00
8:35 AM,5.9,-0.4,75,29.89,2.5,SSW,15.0,20.7,N/A,Snow,Light Snow,210,2013-12-10 14:35:00
8:55 AM,6.4,0.5,77,29.89,2.0,SW,15.0,-,N/A,Snow,Light Snow,220,2013-12-10 14:55:00
9:15 AM,7.2,0.5,74,29.90,5.0,SSW,15.0,-,N/A,,Haze,210,2013-12-10 15:15:00
9:35 AM,8.4,1.0,72,29.90,10.0,SW,15.0,-,N/A,,Scattered Clouds,220,2013-12-10 15:35:00
9:55 AM,9.1,2.1,73,29.90,4.0,SW,15.0,20.7,N/A,,Haze,230,2013-12-10 15:55:00
10:15 AM,10.4,3.4,73,29.91,7.0,SW,12.7,-,N/A,,Mostly Cloudy,220,2013-12-10 16:15:00
10:35 AM,12.9,5.0,71,29.92,10.0,WSW,17.3,-,N/A,,Mostly Cloudy,240,2013-12-10 16:35:00
10:55 AM,14.0,5.7,70,29.91,10.0,WSW,17.3,-,N/A,,Scattered Clouds,240,2013-12-10 16:55:00
11:15 AM,14.9,6.1,68,29.92,10.0,WSW,19.6,24.2,N/A,,Scattered Clouds,240,2013-12-10 17:15:00
11:35 AM,15.8,6.6,67,29.92,7.0,WSW,18.4,23.0,N/A,,Overcast,250,2013-12-10 17:35:00
11:55 AM,15.6,5.9,66,29.92,7.0,WSW,19.6,27.6,N/A,,Overcast,250,2013-12-10 17:55:00
12:15 PM,15.8,4.1,60,29.92,7.0,West,13.8,26.5,N/A,,Overcast,260,2013-12-10 18:15:00
12:35 PM,16.3,5.0,61,29.93,10.0,West,13.8,24.2,N/A,,Overcast,260,2013-12-10 18:35:00
12:55 PM,17.1,4.1,57,29.95,7.0,West,16.1,26.5,N/A,,Overcast,260,2013-12-10 18:55:00
1:15 PM,16.5,5.0,61,29.95,7.0,WSW,18.4,25.3,N/A,,Overcast,250,2013-12-10 19:15:00
1:35 PM,17.4,4.3,56,29.96,10.0,West,16.1,21.9,N/A,,Overcast,260,2013-12-10 19:35:00
1:55 PM,16.7,2.7,54,29.97,10.0,WSW,12.7,20.7,N/A,,Overcast,250,2013-12-10 19:55:00
2:15 PM,16.3,2.1,54,29.99,10.0,WSW,17.3,23.0,N/A,,Mostly Cloudy,250,2013-12-10 20:15:00
2:35 PM,16.5,1.8,52,30.01,10.0,West,15.0,24.2,N/A,,Mostly Cloudy,260,2013-12-10 20:35:00
2:55 PM,16.3,1.8,53,30.03,10.0,WSW,13.8,21.9,N/A,,Scattered Clouds,250,2013-12-10 20:55:00
3:15 PM,15.8,1.0,52,30.03,10.0,WSW,11.5,21.9,N/A,,Mostly Cloudy,250,2013-12-10 21:15:00
3:35 PM,15.4,0.5,52,30.04,10.0,West,12.7,17.3,N/A,,Scattered Clouds,260,2013-12-10 21:35:00
3:55 PM,14.5,-0.0,53,30.05,10.0,WSW,12.7,16.1,N/A,,Clear,250,2013-12-10 21:55:00
4:15 PM,13.8,-0.4,53,30.06,10.0,West,11.5,-,N/A,,Clear,260,2013-12-10 22:15:00
4:35 PM,13.3,-1.1,53,30.07,10.0,WSW,12.7,-,N/A,,Clear,240,2013-12-10 22:35:00
4:55 PM,11.3,-1.3,57,30.08,10.0,SW,10.4,-,N/A,,Clear,230,2013-12-10 22:55:00
5:15 PM,10.9,-2.2,56,30.09,10.0,WSW,10.4,-,N/A,,Clear,250,2013-12-10 23:15:00
5:35 PM,9.5,-2.4,59,30.09,10.0,WSW,8.1,-,N/A,,Clear,250,2013-12-10 23:35:00
5:55 PM,10.8,-2.7,55,30.09,10.0,West,8.1,-,N/A,,Clear,260,2013-12-10 23:55:00
6:15 PM,7.7,-3.6,60,30.10,10.0,SW,10.4,-,N/A,,Clear,230,2013-12-11 00:15:00
6:35 PM,8.2,-2.7,61,30.12,10.0,SW,11.5,-,N/A,,Clear,230,2013-12-11 00:35:00
6:55 PM,7.9,-3.3,60,30.14,10.0,SW,11.5,-,N/A,,Clear,230,2013-12-11 00:55:00
7:15 PM,8.6,-3.1,59,30.14,10.0,WSW,11.5,-,N/A,,Clear,250,2013-12-11 01:15:00
7:35 PM,9.5,-2.6,58,30.14,10.0,WSW,11.5,-,N/A,,Scattered Clouds,250,2013-12-11 01:35:00
7:55 PM,9.7,-1.8,60,30.15,10.0,WSW,10.4,-,N/A,,Overcast,240,2013-12-11 01:55:00
8:15 PM,10.0,-1.3,60,30.15,10.0,WSW,10.4,-,N/A,,Overcast,240,2013-12-11 02:15:00
8:35 PM,9.9,-1.3,61,30.16,10.0,WSW,10.4,-,N/A,,Overcast,240,2013-12-11 02:35:00
8:55 PM,10.0,-0.9,61,30.17,10.0,WSW,10.4,-,N/A,,Overcast,240,2013-12-11 02:55:00
9:15 PM,10.2,-0.6,62,30.17,10.0,SW,10.4,-,N/A,,Overcast,230,2013-12-11 03:15:00
9:35 PM,10.4,-0.4,62,30.18,10.0,SW,11.5,-,N/A,,Overcast,230,2013-12-11 03:35:00
9:55 PM,10.6,-0.6,61,30.19,10.0,WSW,11.5,-,N/A,,Overcast,240,2013-12-11 03:55:00
10:15 PM,10.4,-0.4,62,30.20,10.0,WSW,12.7,17.3,N/A,,Overcast,240,2013-12-11 04:15:00
10:35 PM,10.4,-0.6,61,30.20,10.0,WSW,12.7,-,N/A,,Scattered Clouds,240,2013-12-11 04:35:00
10:55 PM,10.0,-0.4,63,30.21,10.0,SW,8.1,-,N/A,,Mostly Cloudy,230,2013-12-11 04:55:00
11:15 PM,9.9,-0.4,63,30.21,10.0,SW,6.9,-,N/A,,Overcast,230,2013-12-11 05:15:00
11:35 PM,9.5,-0.4,64,30.22,10.0,SW,6.9,-,N/A,,Overcast,220,2013-12-11 05:35:00
11:55 PM,9.3,-0.4,65,30.22,10.0,SW,6.9,-,N/A,,Overcast,230,2013-12-11 05:55:00